createdAt,value
2018-12-31T00:00:41.602Z,11.73
2018-12-31T00:03:11.143Z,11.17
2018-12-31T00:05:40.431Z,9.93
2018-12-31T00:08:09.302Z,9.70
2018-12-31T00:10:38.416Z,9.47
2018-12-31T00:13:07.609Z,9.37
2018-12-31T00:15:36.550Z,10.43
2018-12-31T00:18:05.504Z,13.20
2018-12-31T00:20:34.996Z,13.60
2018-12-31T00:23:04.294Z,10.73
2018-12-31T00:25:33.391Z,10.30
2018-12-31T00:28:02.896Z,10.93
2018-12-31T00:30:32.234Z,13.40
2018-12-31T00:33:01.430Z,11.27
2018-12-31T00:35:30.806Z,11.20
2018-12-31T00:38:00.011Z,14.57
2018-12-31T00:40:29.411Z,12.73
2018-12-31T00:42:59.185Z,11.40
2018-12-31T00:45:28.741Z,11.37
2018-12-31T00:47:58.405Z,11.57
2018-12-31T00:50:28.210Z,9.33
2018-12-31T00:52:57.783Z,10.00
2018-12-31T00:55:26.960Z,11.23
2018-12-31T00:57:56.482Z,12.30
2018-12-31T01:00:25.980Z,9.87
2018-12-31T01:02:54.908Z,7.83
2018-12-31T01:05:23.874Z,7.60
2018-12-31T01:07:53.110Z,8.13
2018-12-31T01:10:22.662Z,8.20
2018-12-31T01:12:52.158Z,8.90
2018-12-31T01:15:21.374Z,10.57
2018-12-31T01:17:50.868Z,11.47
2018-12-31T01:20:19.877Z,7.30
2018-12-31T01:22:48.777Z,7.93
2018-12-31T01:25:18.375Z,8.43
2018-12-31T01:27:47.874Z,8.07
2018-12-31T01:30:17.072Z,7.50
2018-12-31T01:32:46.741Z,7.30
2018-12-31T01:35:15.691Z,7.53
2018-12-31T01:37:45.699Z,6.50
2018-12-31T01:40:14.914Z,6.30
2018-12-31T01:42:44.177Z,6.97
2018-12-31T01:45:13.542Z,6.23
2018-12-31T01:47:42.827Z,6.63
2018-12-31T01:50:12.320Z,5.60
2018-12-31T01:52:41.628Z,7.20
2018-12-31T01:55:10.569Z,8.33
2018-12-31T01:57:39.909Z,7.70
2018-12-31T02:00:09.302Z,7.60
2018-12-31T02:02:38.518Z,7.20
2018-12-31T02:05:07.526Z,8.50
2018-12-31T02:07:36.399Z,9.60
2018-12-31T02:10:05.618Z,9.40
2018-12-31T02:12:35.414Z,10.67
2018-12-31T02:15:05.078Z,10.40
2018-12-31T02:17:34.457Z,7.60
2018-12-31T02:20:04.137Z,7.00
2018-12-31T02:22:33.001Z,7.53
2018-12-31T02:25:02.342Z,8.90
2018-12-31T02:27:31.823Z,10.17
2018-12-31T02:30:01.096Z,9.17
2018-12-31T02:32:29.949Z,9.67
2018-12-31T02:34:59.169Z,10.10
2018-12-31T02:37:28.596Z,10.47
2018-12-31T02:39:58.136Z,10.37
2018-12-31T02:42:27.328Z,11.83
2018-12-31T02:44:57.143Z,12.33
2018-12-31T02:47:26.343Z,12.57
2018-12-31T02:49:55.624Z,11.93
2018-12-31T02:52:24.563Z,13.80
2018-12-31T02:54:53.786Z,12.50
2018-12-31T02:57:23.003Z,13.37
2018-12-31T02:59:52.354Z,13.60
2018-12-31T03:02:21.287Z,13.30
2018-12-31T03:04:50.447Z,14.50
2018-12-31T03:07:19.714Z,12.93
2018-12-31T03:09:48.562Z,12.00
2018-12-31T03:12:17.712Z,11.20
2018-12-31T03:14:47.326Z,10.63
2018-12-31T03:17:16.538Z,6.07
2018-12-31T03:19:45.417Z,5.70
2018-12-31T03:22:14.612Z,5.63
2018-12-31T03:24:43.805Z,5.03
2018-12-31T03:27:12.890Z,5.30
2018-12-31T03:29:41.889Z,4.93
2018-12-31T03:32:11.056Z,4.67
2018-12-31T03:34:40.192Z,4.63
2018-12-31T03:37:09.903Z,4.27
2018-12-31T03:39:39.407Z,3.73
2018-12-31T03:42:08.331Z,3.80
2018-12-31T03:44:37.570Z,3.00
2018-12-31T03:47:06.851Z,2.93
2018-12-31T03:49:36.000Z,2.07
2018-12-31T03:52:04.903Z,2.30
2018-12-31T03:54:34.086Z,2.07
2018-12-31T03:57:03.515Z,2.53
2018-12-31T03:59:32.439Z,2.20
2018-12-31T04:02:01.577Z,2.50
2018-12-31T04:04:30.435Z,2.43
2018-12-31T04:06:59.986Z,2.37
2018-12-31T04:09:29.185Z,2.53
2018-12-31T04:11:58.664Z,2.27
2018-12-31T04:14:28.294Z,1.70
2018-12-31T04:16:57.824Z,2.07
2018-12-31T04:19:26.688Z,2.20
2018-12-31T04:21:56.019Z,2.00
2018-12-31T04:24:25.212Z,2.00
2018-12-31T04:26:54.385Z,1.80
2018-12-31T04:29:23.530Z,1.80
2018-12-31T04:31:52.675Z,1.70
2018-12-31T04:34:21.859Z,1.80
2018-12-31T04:36:51.094Z,1.40
2018-12-31T04:39:20.035Z,3.40
2018-12-31T04:41:49.489Z,1.33
2018-12-31T04:44:18.815Z,1.40
2018-12-31T04:46:48.225Z,1.40
2018-12-31T04:49:17.377Z,1.40
2018-12-31T04:51:46.589Z,1.20
2018-12-31T04:54:15.841Z,1.40
2018-12-31T04:56:45.412Z,1.20
2018-12-31T04:59:14.597Z,1.40
2018-12-31T05:01:43.957Z,1.30
2018-12-31T05:04:12.873Z,1.50
2018-12-31T05:06:41.752Z,1.50
2018-12-31T05:09:10.672Z,1.40
2018-12-31T05:11:39.665Z,1.50
2018-12-31T05:14:08.677Z,1.47
2018-12-31T05:16:37.516Z,1.70
2018-12-31T05:19:06.357Z,1.90
2018-12-31T05:21:35.867Z,1.77
2018-12-31T05:24:05.044Z,2.00
2018-12-31T05:26:34.243Z,2.07
2018-12-31T05:29:03.442Z,1.97
2018-12-31T05:31:32.635Z,2.30
2018-12-31T05:34:01.476Z,2.37
2018-12-31T05:36:30.403Z,2.60
2018-12-31T05:38:59.711Z,2.43
2018-12-31T05:41:29.074Z,2.60
2018-12-31T05:43:57.912Z,3.03
2018-12-31T05:46:26.770Z,2.90
2018-12-31T05:48:56.607Z,3.33
2018-12-31T05:51:25.824Z,3.50
2018-12-31T05:53:55.004Z,4.13
2018-12-31T05:56:24.246Z,4.60
2018-12-31T05:58:53.092Z,5.03
2018-12-31T06:01:22.305Z,5.60
2018-12-31T06:03:51.820Z,5.20
2018-12-31T06:06:21.389Z,11.80
2018-12-31T06:08:50.300Z,6.00
2018-12-31T06:11:19.528Z,3.53
2018-12-31T06:13:48.501Z,3.50
2018-12-31T06:16:18.147Z,2.70
2018-12-31T06:18:47.443Z,3.33
2018-12-31T06:21:16.670Z,4.43
2018-12-31T06:23:45.818Z,4.60
2018-12-31T06:26:14.651Z,3.67
2018-12-31T06:28:44.116Z,3.50
2018-12-31T06:31:12.948Z,3.10
2018-12-31T06:33:41.796Z,3.03
2018-12-31T06:36:10.701Z,3.13
2018-12-31T06:38:39.887Z,2.60
2018-12-31T06:41:09.068Z,3.43
2018-12-31T06:43:37.924Z,3.10
2018-12-31T06:46:07.801Z,2.53
2018-12-31T06:48:36.991Z,3.10
2018-12-31T06:51:05.987Z,3.33
2018-12-31T06:53:35.288Z,3.53
2018-12-31T06:56:04.485Z,4.87
2018-12-31T06:58:34.006Z,7.00
2018-12-31T07:01:02.995Z,9.93
2018-12-31T07:03:32.558Z,10.53
2018-12-31T07:06:02.097Z,7.60
2018-12-31T07:08:31.403Z,7.93
2018-12-31T07:11:00.256Z,8.30
2018-12-31T07:13:29.615Z,7.30
2018-12-31T07:15:58.918Z,7.33
2018-12-31T07:18:28.331Z,6.97
2018-12-31T07:20:57.810Z,9.17
2018-12-31T07:23:27.004Z,9.17
2018-12-31T07:25:55.935Z,10.40
2018-12-31T07:28:25.091Z,8.30
2018-12-31T07:30:54.009Z,8.70
2018-12-31T07:33:23.190Z,7.80
2018-12-31T07:35:52.386Z,8.17
2018-12-31T07:38:21.580Z,8.63
2018-12-31T07:40:50.793Z,16.40
2018-12-31T07:43:20.293Z,9.40
2018-12-31T07:45:49.685Z,9.80
2018-12-31T07:48:19.708Z,8.43
2018-12-31T07:50:49.058Z,8.37
2018-12-31T07:53:18.214Z,7.20
2018-12-31T07:55:47.647Z,7.60
2018-12-31T07:58:16.898Z,7.67
2018-12-31T08:00:46.179Z,7.47
2018-12-31T08:03:15.314Z,18.57
2018-12-31T08:05:44.185Z,9.03
2018-12-31T08:08:14.169Z,9.03
2018-12-31T08:10:43.964Z,8.27
2018-12-31T08:13:13.751Z,9.53
2018-12-31T08:15:42.965Z,14.20
2018-12-31T08:18:12.380Z,7.30
2018-12-31T08:20:41.810Z,10.23
2018-12-31T08:23:10.933Z,9.47
2018-12-31T08:25:40.175Z,7.77
2018-12-31T08:28:09.813Z,8.30
2018-12-31T08:30:38.751Z,9.40
2018-12-31T08:33:08.237Z,9.07
2018-12-31T08:35:37.453Z,7.67
2018-12-31T08:38:06.755Z,12.03
2018-12-31T08:40:35.977Z,16.63
2018-12-31T08:43:05.468Z,16.33
2018-12-31T08:45:34.451Z,8.63
2018-12-31T08:48:03.715Z,22.80
2018-12-31T08:50:33.310Z,40.53
2018-12-31T08:53:02.449Z,15.90
2018-12-31T08:55:31.746Z,23.20
2018-12-31T08:58:00.681Z,30.47
2018-12-31T09:00:29.530Z,27.60
2018-12-31T09:02:58.474Z,24.13
2018-12-31T09:05:27.441Z,10.60
2018-12-31T09:07:56.361Z,8.63
2018-12-31T09:10:25.509Z,8.60
2018-12-31T09:12:54.984Z,6.90
2018-12-31T09:15:23.912Z,14.13
2018-12-31T09:17:53.461Z,16.30
2018-12-31T09:20:22.459Z,14.03
2018-12-31T09:22:51.394Z,13.80
2018-12-31T09:25:20.319Z,14.13
2018-12-31T09:27:50.123Z,11.10
2018-12-31T09:30:19.141Z,8.20
2018-12-31T09:32:48.034Z,6.37
2018-12-31T09:35:16.884Z,6.83
2018-12-31T09:37:46.832Z,6.30
2018-12-31T09:40:16.328Z,7.93
2018-12-31T09:42:45.854Z,14.93
2018-12-31T09:45:15.380Z,28.50
2018-12-31T09:47:44.964Z,40.03
2018-12-31T09:50:14.186Z,31.93
2018-12-31T09:52:43.881Z,24.60
2018-12-31T09:55:13.361Z,20.17
2018-12-31T09:57:42.873Z,28.70
2018-12-31T10:00:12.477Z,25.50
2018-12-31T10:02:42.082Z,21.63
2018-12-31T10:05:11.303Z,28.57
2018-12-31T10:07:40.482Z,14.43
2018-12-31T10:10:09.780Z,14.03
2018-12-31T10:12:38.641Z,13.50
2018-12-31T10:15:08.802Z,17.67
2018-12-31T10:17:38.002Z,13.87
2018-12-31T10:20:07.639Z,11.83
2018-12-31T10:22:36.853Z,9.97
2018-12-31T10:25:05.865Z,9.40
2018-12-31T10:27:35.713Z,7.47
2018-12-31T10:30:05.245Z,8.67
2018-12-31T10:32:34.657Z,8.73
2018-12-31T10:35:03.913Z,9.93
2018-12-31T10:37:33.478Z,10.40
2018-12-31T10:40:02.560Z,10.40
2018-12-31T10:42:33.464Z,14.47
2018-12-31T10:45:02.762Z,15.47
2018-12-31T10:47:32.047Z,34.50
2018-12-31T10:50:01.292Z,27.73
2018-12-31T10:52:32.514Z,13.00
2018-12-31T10:55:01.862Z,9.37
2018-12-31T10:57:30.966Z,24.43
2018-12-31T11:00:00.235Z,21.73
2018-12-31T11:02:29.927Z,13.20
2018-12-31T11:04:59.529Z,11.03
2018-12-31T11:07:28.555Z,12.60
2018-12-31T11:09:57.405Z,14.27
2018-12-31T11:12:26.613Z,12.37
2018-12-31T11:14:55.822Z,11.23
2018-12-31T11:17:25.318Z,12.93
2018-12-31T11:19:54.541Z,11.27
2018-12-31T11:22:23.491Z,11.00
2018-12-31T11:24:53.313Z,11.37
2018-12-31T11:27:23.197Z,13.20
2018-12-31T11:29:52.321Z,13.33
2018-12-31T11:32:22.100Z,11.90
2018-12-31T11:34:52.109Z,9.17
2018-12-31T11:37:20.968Z,8.87
2018-12-31T11:39:50.137Z,10.20
2018-12-31T11:42:19.251Z,7.40
2018-12-31T11:44:49.107Z,7.10
2018-12-31T11:47:18.332Z,5.33
2018-12-31T11:49:47.447Z,4.90
2018-12-31T11:52:16.703Z,5.33
2018-12-31T11:54:46.044Z,5.00
2018-12-31T11:57:15.244Z,4.60
2018-12-31T11:59:44.774Z,5.53
2018-12-31T12:02:13.615Z,6.10
2018-12-31T12:04:43.600Z,5.70
2018-12-31T12:07:12.806Z,4.77
2018-12-31T12:09:41.741Z,4.60
2018-12-31T12:12:10.920Z,4.50
2018-12-31T12:14:39.901Z,8.50
2018-12-31T12:17:08.839Z,5.80
2018-12-31T12:19:37.778Z,6.57
2018-12-31T12:22:07.152Z,5.17
2018-12-31T12:24:36.765Z,7.23
2018-12-31T12:27:06.206Z,4.23
2018-12-31T12:29:35.708Z,5.10
2018-12-31T12:32:04.944Z,4.23
2018-12-31T12:34:34.040Z,4.20
2018-12-31T12:37:03.577Z,5.07
2018-12-31T12:39:32.835Z,4.70
2018-12-31T12:42:02.586Z,5.67
2018-12-31T12:44:32.110Z,4.50
2018-12-31T12:47:01.276Z,5.03
2018-12-31T12:49:30.541Z,4.77
2018-12-31T12:52:00.407Z,4.63
2018-12-31T12:54:30.024Z,4.80
2018-12-31T12:56:59.107Z,4.60
2018-12-31T12:59:28.253Z,4.60
2018-12-31T13:01:57.556Z,4.40
2018-12-31T13:04:26.979Z,4.00
2018-12-31T13:06:55.909Z,3.87
2018-12-31T13:09:25.807Z,3.80
2018-12-31T13:11:55.252Z,5.00
2018-12-31T13:14:25.036Z,4.60
2018-12-31T13:16:54.110Z,4.33
2018-12-31T13:19:23.394Z,4.80
2018-12-31T13:21:52.657Z,5.63
2018-12-31T13:24:22.082Z,5.03
2018-12-31T13:26:51.439Z,4.67
2018-12-31T13:29:20.948Z,5.13
2018-12-31T13:31:50.678Z,10.40
2018-12-31T13:34:19.781Z,4.87
2018-12-31T13:36:48.982Z,4.70
2018-12-31T13:39:18.571Z,5.20
2018-12-31T13:41:48.393Z,4.57
2018-12-31T13:44:17.580Z,4.80
2018-12-31T13:46:47.047Z,5.00
2018-12-31T13:49:16.252Z,5.27
2018-12-31T13:51:45.209Z,5.13
2018-12-31T13:54:14.555Z,5.20
2018-12-31T13:56:45.008Z,5.20
2018-12-31T13:59:14.082Z,5.43
2018-12-31T14:01:43.287Z,5.17
2018-12-31T14:04:12.855Z,5.27
2018-12-31T14:06:42.056Z,5.63
2018-12-31T14:09:11.413Z,5.77
2018-12-31T14:11:40.593Z,5.77
2018-12-31T14:14:10.416Z,5.87
2018-12-31T14:16:39.609Z,6.33
2018-12-31T14:19:09.320Z,5.80
2018-12-31T14:21:38.235Z,5.87
2018-12-31T14:24:07.417Z,6.57
2018-12-31T14:26:36.919Z,6.20
2018-12-31T14:29:05.930Z,8.73
2018-12-31T14:31:35.138Z,7.43
2018-12-31T14:34:04.105Z,8.60
2018-12-31T14:36:32.950Z,7.77
2018-12-31T14:39:02.589Z,8.00
2018-12-31T14:41:32.425Z,8.37
2018-12-31T14:44:02.272Z,7.87
2018-12-31T14:46:31.422Z,8.77
2018-12-31T14:49:00.899Z,26.90
2018-12-31T14:51:30.049Z,13.57
2018-12-31T14:53:59.414Z,14.90
2018-12-31T14:56:28.582Z,15.97
2018-12-31T14:58:57.871Z,15.40
2018-12-31T15:01:26.964Z,22.20
2018-12-31T15:03:56.547Z,22.23
2018-12-31T15:06:26.453Z,24.60
2018-12-31T15:08:55.313Z,18.63
2018-12-31T15:11:24.158Z,13.10
2018-12-31T15:13:53.469Z,14.20
2018-12-31T15:16:23.054Z,11.33
2018-12-31T15:18:52.048Z,12.50
2018-12-31T15:21:21.252Z,12.03
2018-12-31T15:23:50.121Z,11.27
2018-12-31T15:26:19.442Z,11.20
2018-12-31T15:28:49.271Z,11.30
2018-12-31T15:31:18.989Z,14.10
2018-12-31T15:33:48.583Z,14.43
2018-12-31T15:36:17.774Z,11.57
2018-12-31T15:38:46.787Z,15.20
2018-12-31T15:41:15.798Z,12.20
2018-12-31T15:43:44.975Z,11.43
2018-12-31T15:46:20.137Z,11.73
2018-12-31T15:48:45.143Z,12.00
2018-12-31T15:51:15.266Z,11.70
2018-12-31T15:53:44.469Z,11.27
2018-12-31T15:56:13.928Z,10.93
2018-12-31T15:58:43.360Z,11.80
2018-12-31T16:01:12.411Z,11.77
2018-12-31T16:03:42.337Z,11.70
2018-12-31T16:06:11.867Z,11.60
2018-12-31T16:08:41.350Z,11.83
2018-12-31T16:11:10.810Z,12.77
2018-12-31T16:13:39.773Z,12.20
2018-12-31T16:16:09.254Z,14.40
2018-12-31T16:18:38.870Z,12.93
2018-12-31T16:21:08.198Z,15.20
2018-12-31T16:23:38.328Z,12.80
2018-12-31T16:26:07.258Z,13.07
2018-12-31T16:28:36.355Z,14.00
2018-12-31T16:31:05.300Z,12.17
2018-12-31T16:33:34.885Z,14.47
2018-12-31T16:36:03.873Z,13.87
2018-12-31T16:38:33.115Z,21.17
2018-12-31T16:41:02.576Z,14.03
2018-12-31T16:43:32.099Z,14.63
2018-12-31T16:46:00.956Z,14.13
2018-12-31T16:48:30.479Z,16.07
2018-12-31T16:50:59.734Z,16.83
2018-12-31T16:53:29.179Z,15.87
2018-12-31T16:55:58.553Z,16.77
2018-12-31T16:58:28.096Z,16.03
2018-12-31T17:00:57.130Z,15.30
2018-12-31T17:03:26.289Z,14.30
2018-12-31T17:05:55.388Z,14.83
2018-12-31T17:08:24.329Z,14.60
2018-12-31T17:10:53.567Z,15.20
2018-12-31T17:13:22.795Z,12.63
2018-12-31T17:15:51.974Z,13.27
2018-12-31T17:18:21.190Z,16.23
2018-12-31T17:20:50.298Z,15.20
2018-12-31T17:23:19.247Z,15.77
2018-12-31T17:25:48.730Z,15.63
2018-12-31T17:28:17.908Z,15.10
2018-12-31T17:30:47.170Z,16.97
2018-12-31T17:33:16.942Z,13.70
2018-12-31T17:35:46.450Z,13.73
2018-12-31T17:38:15.590Z,12.77
2018-12-31T17:40:44.849Z,22.33
2018-12-31T17:43:14.166Z,19.37
2018-12-31T17:45:43.554Z,25.63
2018-12-31T17:48:12.734Z,12.87
2018-12-31T17:50:41.678Z,12.03
2018-12-31T17:53:11.344Z,10.87
2018-12-31T17:55:40.938Z,13.80
2018-12-31T17:58:10.174Z,13.40
2018-12-31T18:00:39.567Z,14.40
2018-12-31T18:03:08.681Z,14.70
2018-12-31T18:05:38.292Z,15.97
2018-12-31T18:08:07.613Z,17.20
2018-12-31T18:10:36.803Z,18.03
2018-12-31T18:13:06.090Z,20.73
2018-12-31T18:15:35.430Z,21.17
2018-12-31T18:18:04.740Z,19.07
2018-12-31T18:20:33.833Z,19.37
2018-12-31T18:23:03.062Z,20.83
2018-12-31T18:25:32.069Z,20.70
2018-12-31T18:28:00.924Z,21.37
2018-12-31T18:30:30.130Z,22.07
2018-12-31T18:32:59.411Z,22.57
2018-12-31T18:35:28.902Z,23.03
2018-12-31T18:37:58.144Z,23.47
2018-12-31T18:40:27.705Z,21.63
2018-12-31T18:42:57.013Z,31.30
2018-12-31T18:45:26.217Z,31.87
2018-12-31T18:47:55.708Z,27.47
2018-12-31T18:50:24.819Z,31.13
2018-12-31T18:52:53.734Z,35.80
2018-12-31T18:55:23.246Z,38.03
2018-12-31T18:57:53.034Z,32.90
2018-12-31T19:00:22.001Z,32.47
2018-12-31T19:02:51.209Z,36.00
2018-12-31T19:05:20.130Z,35.83
2018-12-31T19:07:49.610Z,34.90
2018-12-31T19:10:18.925Z,43.83
2018-12-31T19:12:47.792Z,42.97
2018-12-31T19:15:17.062Z,37.30
2018-12-31T19:17:45.936Z,34.37
2018-12-31T19:20:15.193Z,32.13
2018-12-31T19:22:45.151Z,29.60
2018-12-31T19:25:14.921Z,30.03
2018-12-31T19:27:43.776Z,31.43
2018-12-31T19:30:13.030Z,27.67
2018-12-31T19:32:41.883Z,26.37
2018-12-31T19:35:11.510Z,27.43
2018-12-31T19:37:40.703Z,28.67
2018-12-31T19:40:10.014Z,30.23
2018-12-31T19:42:39.119Z,31.27
2018-12-31T19:45:08.054Z,29.40
2018-12-31T19:47:37.362Z,31.10
2018-12-31T19:50:06.391Z,28.07
2018-12-31T19:52:35.321Z,26.63
2018-12-31T19:55:04.541Z,26.53
2018-12-31T19:57:33.745Z,24.33
2018-12-31T20:00:03.447Z,25.07
2018-12-31T20:02:32.906Z,26.00
2018-12-31T20:05:02.622Z,29.63
2018-12-31T20:07:32.430Z,33.57
2018-12-31T20:10:02.056Z,28.87
2018-12-31T20:12:31.631Z,34.50
2018-12-31T20:15:01.169Z,35.83
2018-12-31T20:17:30.368Z,36.07
2018-12-31T20:19:59.958Z,37.40
2018-12-31T20:22:28.861Z,28.90
2018-12-31T20:24:58.097Z,34.03
2018-12-31T20:27:27.022Z,29.47
2018-12-31T20:29:56.553Z,27.33
2018-12-31T20:32:26.209Z,27.93
2018-12-31T20:34:55.705Z,26.07
2018-12-31T20:37:24.851Z,25.50
2018-12-31T20:39:54.130Z,26.70
2018-12-31T20:42:23.066Z,23.30
2018-12-31T20:44:52.538Z,25.10
2018-12-31T20:47:21.936Z,26.17
2018-12-31T20:49:50.786Z,24.87
2018-12-31T20:52:20.077Z,20.47
2018-12-31T20:54:49.665Z,18.17
2018-12-31T20:57:19.094Z,22.97
2018-12-31T20:59:48.514Z,26.63
2018-12-31T21:02:17.989Z,24.23
2018-12-31T21:04:47.226Z,28.83
2018-12-31T21:07:16.785Z,26.27
2018-12-31T21:09:46.417Z,29.63
2018-12-31T21:12:15.923Z,27.13
2018-12-31T21:14:45.728Z,32.43
2018-12-31T21:17:14.910Z,41.80
2018-12-31T21:19:44.646Z,102.87
2018-12-31T21:22:14.414Z,93.00
2018-12-31T21:24:43.338Z,49.13
2018-12-31T21:27:12.526Z,27.43
2018-12-31T21:29:41.378Z,26.40
2018-12-31T21:32:10.520Z,28.30
2018-12-31T21:34:41.282Z,27.60
2018-12-31T21:37:10.527Z,31.67
2018-12-31T21:39:39.386Z,33.60
2018-12-31T21:42:08.955Z,32.57
2018-12-31T21:44:38.478Z,32.83
2018-12-31T21:47:07.404Z,33.33
2018-12-31T21:49:36.445Z,34.10
2018-12-31T21:52:05.497Z,36.00
2018-12-31T21:54:34.683Z,37.97
2018-12-31T21:57:03.684Z,37.93
2018-12-31T21:59:32.898Z,36.93
2018-12-31T22:02:02.129Z,36.63
2018-12-31T22:04:31.245Z,38.70
2018-12-31T22:07:00.417Z,35.77
2018-12-31T22:09:29.650Z,37.30
2018-12-31T22:11:58.652Z,34.37
2018-12-31T22:14:27.894Z,34.77
2018-12-31T22:16:56.824Z,36.93
2018-12-31T22:19:26.008Z,38.90
2018-12-31T22:21:55.399Z,32.17
2018-12-31T22:24:24.819Z,31.20
2018-12-31T22:26:54.577Z,29.17
2018-12-31T22:29:23.689Z,22.63
2018-12-31T22:31:52.773Z,24.07
2018-12-31T22:34:22.061Z,25.60
2018-12-31T22:36:50.986Z,23.47
2018-12-31T22:39:20.493Z,24.70
2018-12-31T22:41:49.741Z,26.47
2018-12-31T22:44:19.163Z,22.30
2018-12-31T22:46:49.176Z,23.73
2018-12-31T22:49:18.446Z,23.33
2018-12-31T22:51:47.746Z,27.47
2018-12-31T22:54:17.149Z,24.77
2018-12-31T22:56:46.843Z,25.87
2018-12-31T22:59:16.474Z,24.40
2018-12-31T23:01:45.329Z,34.90
2018-12-31T23:04:14.437Z,189.87
2018-12-31T23:06:43.971Z,286.57
2018-12-31T23:09:15.163Z,268.80
2018-12-31T23:11:44.332Z,405.03
2018-12-31T23:14:13.597Z,257.90
2018-12-31T23:16:46.539Z,106.23
2018-12-31T23:19:16.000Z,175.20
2018-12-31T23:21:45.508Z,328.43
2018-12-31T23:24:14.832Z,233.00
2018-12-31T23:26:44.417Z,148.13
2018-12-31T23:29:13.289Z,124.47
2018-12-31T23:31:42.533Z,157.10
2018-12-31T23:34:11.695Z,126.73
2018-12-31T23:36:40.574Z,132.37
2018-12-31T23:39:09.428Z,139.20
2018-12-31T23:41:38.812Z,126.30
2018-12-31T23:44:08.101Z,201.27
2018-12-31T23:46:37.295Z,151.60
2018-12-31T23:49:06.657Z,152.63
2018-12-31T23:51:36.185Z,246.87
2018-12-31T23:54:05.832Z,235.43
2018-12-31T23:56:35.706Z,220.30
2018-12-31T23:59:04.825Z,219.37
